Time;durP1;ratioP1;P1;durP2;ratioP2;P2;SDS_P1;SDS_P2;PMS_P1;PMS_P2;Temp;Humidity;BMP_temperature;BMP_pressure;BME280_temperature;BME280_humidity;BME280_pressure;Samples;Min_cycle;Max_cycle;Signal;HPM_P1;HPM_P2
2021/06/08 00:00:26;;;;;;;11.98;6.35;;;15.00;99.90;;;;;;5098773;28;20017;-80
2021/06/08 00:02:52;;;;;;;12.05;7.30;;;15.00;99.90;;;;;;5092025;28;20048;-79
2021/06/08 00:05:19;;;;;;;10.20;5.85;;;14.90;99.90;;;;;;5079135;28;20052;-80
2021/06/08 00:07:45;;;;;;;11.88;6.63;;;14.90;99.90;;;;;;5073889;28;20120;-81
2021/06/08 00:10:12;;;;;;;9.60;6.20;;;14.90;99.90;;;;;;5062455;28;20048;-79
2021/06/08 00:12:37;;;;;;;11.40;6.60;;;14.90;99.90;;;;;;5060333;28;20028;-79
2021/06/08 00:15:05;;;;;;;11.85;6.28;;;14.90;99.90;;;;;;5077893;28;20092;-82
2021/06/08 00:17:30;;;;;;;11.07;6.22;;;14.90;99.90;;;;;;5060605;28;20054;-79
2021/06/08 00:19:56;;;;;;;10.07;6.47;;;15.00;99.90;;;;;;5074900;28;20024;-81
2021/06/08 00:22:22;;;;;;;11.20;6.32;;;15.00;99.90;;;;;;5079562;28;20016;-81
2021/06/08 00:27:15;;;;;;;12.57;6.83;;;15.00;99.90;;;;;;5057192;28;20056;-81
2021/06/08 00:29:41;;;;;;;15.00;6.57;;;14.90;99.90;;;;;;5046621;28;20470;-81
2021/06/08 00:32:07;;;;;;;10.70;6.40;;;14.90;99.90;;;;;;5038470;28;20029;-81
2021/06/08 00:34:32;;;;;;;12.10;6.97;;;14.90;99.90;;;;;;5020756;28;20484;-79
2021/06/08 00:36:58;;;;;;;12.77;6.80;;;14.90;99.90;;;;;;5038251;28;20048;-78
2021/06/08 00:39:23;;;;;;;14.02;7.50;;;14.80;99.90;;;;;;5031471;28;20055;-80
2021/06/08 00:41:49;;;;;;;11.23;6.22;;;14.80;99.90;;;;;;5042371;28;20485;-80
2021/06/08 00:44:17;;;;;;;12.82;6.63;;;14.80;99.90;;;;;;5042062;28;20032;-80
2021/06/08 00:46:44;;;;;;;11.90;7.27;;;14.80;99.90;;;;;;5041349;28;20067;-80
2021/06/08 00:49:11;;;;;;;12.23;7.15;;;14.70;99.90;;;;;;5021826;28;20116;-79
2021/06/08 00:51:37;;;;;;;11.48;6.47;;;14.70;99.90;;;;;;5022552;28;20553;-79
2021/06/08 00:54:09;;;;;;;11.00;6.72;;;15.80;99.90;;;;;;5040177;28;20056;-79
2021/06/08 00:56:36;;;;;;;12.43;6.75;;;14.60;99.90;;;;;;5040266;28;20052;-80
2021/06/08 00:59:03;;;;;;;13.20;6.75;;;14.60;99.90;;;;;;5059943;28;20017;-80
2021/06/08 01:01:28;;;;;;;8.90;5.78;;;14.50;99.90;;;;;;5060783;28;20083;-80
2021/06/08 01:03:55;;;;;;;16.45;7.68;;;14.50;99.90;;;;;;5057326;28;20437;-79
2021/06/08 01:06:20;;;;;;;13.30;6.40;;;14.50;99.90;;;;;;5042846;28;20029;-80
2021/06/08 01:08:46;;;;;;;11.45;6.13;;;14.50;99.90;;;;;;5022306;28;20073;-80
2021/06/08 01:11:11;;;;;;;10.25;6.15;;;14.40;99.90;;;;;;5020555;28;20536;-78
2021/06/08 01:13:37;;;;;;;13.95;6.97;;;14.40;99.90;;;;;;5041382;28;20483;-80
2021/06/08 01:16:03;;;;;;;12.82;6.38;;;14.40;99.90;;;;;;5039462;28;20017;-81
2021/06/08 01:18:28;;;;;;;12.32;6.43;;;14.30;99.90;;;;;;5019617;28;20022;-80
2021/06/08 01:21:05;;;;;;;10.45;5.82;;;14.30;99.90;;;;;;5037728;28;20049;-79
2021/06/08 01:23:33;;;;;;;11.27;6.13;;;14.30;99.90;;;;;;5022081;28;20076;-81
2021/06/08 01:25:59;;;;;;;12.30;6.25;;;14.20;99.90;;;;;;5039602;28;20482;-79
2021/06/08 01:28:25;;;;;;;10.50;5.28;;;14.20;99.90;;;;;;5058754;28;20032;-81
2021/06/08 01:30:55;;;;;;;11.48;5.85;;;14.10;99.90;;;;;;5040676;28;20025;-79
2021/06/08 01:33:23;;;;;;;9.70;5.95;;;14.10;99.90;;;;;;5059181;28;20029;-82
2021/06/08 01:35:51;;;;;;;9.32;6.03;;;14.00;99.90;;;;;;5032843;28;20499;-79
2021/06/08 01:38:17;;;;;;;10.52;6.47;;;14.00;99.90;;;;;;5039349;28;20044;-81
2021/06/08 01:40:45;;;;;;;11.95;6.07;;;14.00;99.90;;;;;;5057463;28;20458;-81
2021/06/08 01:43:13;;;;;;;11.02;6.07;;;13.90;99.90;;;;;;5040579;28;20028;-78
2021/06/08 01:45:47;;;;;;;10.67;5.33;;;13.90;99.90;;;;;;5022568;28;20062;-80
2021/06/08 01:48:13;;;;;;;14.38;5.85;;;14.50;99.90;;;;;;5059525;28;20267;-80
2021/06/08 01:50:39;;;;;;;9.70;5.07;;;13.80;99.90;;;;;;5059088;28;20083;-81
2021/06/08 01:53:12;;;;;;;10.40;5.28;;;13.80;99.90;;;;;;5039850;28;20029;-79
2021/06/08 01:55:44;;;;;;;10.18;5.60;;;13.80;99.90;;;;;;5037846;28;20098;-81
2021/06/08 01:58:17;;;;;;;12.90;5.78;;;13.70;99.90;;;;;;5054350;28;20044;-81
2021/06/08 02:00:51;;;;;;;9.35;4.97;;;13.70;99.90;;;;;;5042779;28;20032;-81
2021/06/08 02:03:21;;;;;;;11.95;6.15;;;13.60;99.90;;;;;;5057628;28;20022;-79
2021/06/08 02:05:51;;;;;;;12.98;5.65;;;13.60;99.90;;;;;;5039180;28;20021;-80
2021/06/08 02:08:30;;;;;;;8.95;4.93;;;13.60;99.90;;;;;;5039327;28;20040;-81
2021/06/08 02:11:00;;;;;;;8.95;5.10;;;13.50;99.90;;;;;;5040237;28;20047;-81
2021/06/08 02:13:41;;;;;;;11.00;5.35;;;13.50;99.90;;;;;;5039187;28;20063;-79
2021/06/08 02:16:24;;;;;;;9.95;5.65;;;13.40;99.90;;;;;;5039446;28;20036;-80
2021/06/08 02:18:51;;;;;;;9.43;5.22;;;13.40;99.90;;;;;;5057662;28;20077;-80
2021/06/08 02:21:21;;;;;;;7.85;4.95;;;13.30;99.90;;;;;;5057528;28;20025;-80
2021/06/08 02:23:51;;;;;;;9.98;5.38;;;13.30;99.90;;;;;;5039681;28;20063;-80
2021/06/08 02:26:19;;;;;;;12.73;5.50;;;13.20;99.90;;;;;;5057699;28;20017;-80
2021/06/08 02:28:46;;;;;;;7.55;5.43;;;13.20;99.90;;;;;;5039552;28;20029;-80
2021/06/08 02:31:16;;;;;;;9.60;5.30;;;13.10;99.90;;;;;;5039235;28;20025;-80
2021/06/08 02:33:46;;;;;;;9.75;5.63;;;13.10;99.90;;;;;;5057698;28;20035;-80
2021/06/08 02:36:12;;;;;;;10.07;4.97;;;13.00;99.90;;;;;;5039519;28;20385;-80
2021/06/08 02:38:38;;;;;;;9.30;5.22;;;13.00;99.90;;;;;;5038844;28;20040;-80
2021/06/08 02:41:05;;;;;;;9.75;5.15;;;13.00;99.90;;;;;;5057347;28;20127;-80
2021/06/08 02:43:32;;;;;;;8.10;4.65;;;13.00;99.90;;;;;;5039063;28;20022;-80
2021/06/08 02:46:00;;;;;;;7.72;4.82;;;12.90;99.90;;;;;;5039297;28;20024;-80
2021/06/08 02:48:26;;;;;;;9.57;4.80;;;12.90;99.90;;;;;;5058010;28;20025;-81
2021/06/08 02:50:54;;;;;;;9.43;4.88;;;12.80;99.90;;;;;;5058079;28;20155;-80
2021/06/08 02:53:21;;;;;;;9.48;5.25;;;12.80;99.90;;;;;;5057864;28;20040;-81
2021/06/08 02:55:47;;;;;;;10.15;5.47;;;12.80;99.90;;;;;;5038602;28;20025;-81
2021/06/08 02:58:14;;;;;;;8.02;5.22;;;12.80;99.90;;;;;;5039160;28;20067;-80
2021/06/08 03:00:41;;;;;;;7.65;4.78;;;12.80;99.90;;;;;;5038464;28;20021;-81
2021/06/08 03:03:08;;;;;;;8.55;5.20;;;13.20;99.90;;;;;;5059693;28;20107;-80
2021/06/08 03:05:42;;;;;;;9.35;5.63;;;12.80;99.90;;;;;;5060476;28;20024;-81
2021/06/08 03:08:45;;;;;;;10.18;5.43;;;12.80;99.90;;;;;;5043513;28;20021;-80
2021/06/08 03:11:19;;;;;;;9.07;5.47;;;12.80;99.90;;;;;;5000128;28;20075;-82
2021/06/08 03:13:46;;;;;;;12.75;6.10;;;12.80;99.90;;;;;;5042126;28;20029;-79
2021/06/08 03:16:15;;;;;;;10.80;5.25;;;12.80;99.90;;;;;;5040994;28;20440;-80
2021/06/08 03:18:44;;;;;;;9.18;5.13;;;12.70;99.90;;;;;;5040763;28;20040;-82
2021/06/08 03:21:15;;;;;;;11.45;5.45;;;12.70;99.90;;;;;;5043526;28;20017;-81
2021/06/08 03:23:44;;;;;;;10.13;5.72;;;12.60;99.90;;;;;;5059746;28;20085;-78
2021/06/08 03:26:10;;;;;;;;;;;12.70;99.90;;;;;;5059195;28;20057;-80
2021/06/08 03:28:38;;;;;;;10.05;5.50;;;12.60;99.90;;;;;;5042116;28;20043;-80
2021/06/08 03:31:04;;;;;;;9.82;5.63;;;12.60;99.90;;;;;;5058009;28;20090;-81
2021/06/08 03:33:32;;;;;;;12.30;5.00;;;12.60;99.90;;;;;;5061194;28;20021;-80
2021/06/08 03:35:58;;;;;;;10.50;5.80;;;12.60;99.90;;;;;;5042630;28;20083;-82
2021/06/08 03:38:25;;;;;;;11.52;5.63;;;12.60;99.90;;;;;;5041005;28;20287;-81
2021/06/08 03:40:53;;;;;;;10.60;5.32;;;12.60;99.90;;;;;;5041639;28;20029;-81
2021/06/08 03:43:19;;;;;;;11.47;5.93;;;12.60;99.90;;;;;;5040740;28;20033;-81
2021/06/08 03:45:49;;;;;;;10.35;6.32;;;12.50;99.90;;;;;;5059926;28;20094;-79
2021/06/08 03:48:42;;;;;;;8.00;5.00;;;12.60;99.90;;;;;;5063854;28;20084;-81
2021/06/08 03:51:09;;;;;;;9.20;5.57;;;12.50;99.90;;;;;;5059733;28;20025;-82
2021/06/08 03:53:38;;;;;;;11.95;5.50;;;12.60;99.90;;;;;;5059216;28;20032;-81
2021/06/08 03:56:05;;;;;;;11.93;5.95;;;12.60;99.90;;;;;;5059428;28;20543;-82
2021/06/08 03:58:32;;;;;;;9.20;4.38;;;12.60;99.90;;;;;;5059137;28;20037;-82
2021/06/08 04:00:58;;;;;;;9.20;4.88;;;12.60;99.90;;;;;;5041369;28;20063;-81
2021/06/08 04:03:25;;;;;;;6.18;3.95;;;12.60;99.90;;;;;;5041234;28;20112;-80
2021/06/08 04:05:54;;;;;;;9.15;3.95;;;12.60;99.90;;;;;;5040726;28;20021;-81
2021/06/08 04:08:19;;;;;;;;;;;12.60;99.90;;;;;;5040490;28;20093;-80
2021/06/08 04:10:45;;;;;;;7.95;3.85;;;12.60;99.90;;;;;;5041589;28;19956;-80
2021/06/08 04:13:12;;;;;;;6.00;3.72;;;12.60;99.90;;;;;;5037649;28;20070;-78
2021/06/08 04:15:37;;;;;;;7.45;4.22;;;12.60;99.90;;;;;;5054780;28;20112;-78
2021/06/08 04:18:04;;;;;;;7.93;4.72;;;12.60;99.90;;;;;;5054678;28;20057;-78
2021/06/08 04:20:30;;;;;;;8.82;4.80;;;12.70;99.90;;;;;;5056911;28;20347;-77
2021/06/08 04:22:57;;;;;;;10.73;5.85;;;12.80;99.90;;;;;;5054809;28;20496;-77
2021/06/08 04:25:24;;;;;;;8.65;5.75;;;13.00;99.90;;;;;;5055845;28;20032;-79
2021/06/08 04:27:51;;;;;;;9.77;5.30;;;13.10;99.90;;;;;;5041182;28;20024;-78
2021/06/08 04:30:17;;;;;;;10.38;5.75;;;13.10;99.90;;;;;;5036937;28;20017;-77
2021/06/08 04:32:43;;;;;;;8.68;5.53;;;13.20;99.90;;;;;;5055028;28;20134;-78
2021/06/08 04:35:09;;;;;;;7.38;5.13;;;13.30;99.90;;;;;;5054978;28;20025;-78
2021/06/08 04:37:39;;;;;;;8.32;5.00;;;13.40;99.90;;;;;;5054489;28;20466;-78
2021/06/08 04:40:06;;;;;;;7.93;4.97;;;13.50;99.90;;;;;;5054720;28;20100;-77
2021/06/08 04:42:31;;;;;;;7.63;4.72;;;13.60;99.90;;;;;;5036354;28;20549;-78
2021/06/08 04:44:57;;;;;;;6.03;4.00;;;13.60;99.90;;;;;;5036518;28;20115;-78
2021/06/08 04:47:23;;;;;;;6.47;4.35;;;13.70;99.90;;;;;;5054509;28;20044;-78
2021/06/08 04:49:50;;;;;;;10.88;4.90;;;13.80;99.90;;;;;;5036423;28;20481;-78
2021/06/08 04:52:16;;;;;;;9.73;4.57;;;13.90;99.90;;;;;;5054640;28;20063;-78
2021/06/08 04:54:42;;;;;;;9.05;4.70;;;13.90;99.90;;;;;;5054259;28;20470;-78
2021/06/08 04:57:11;;;;;;;6.97;3.90;;;13.90;99.90;;;;;;5054162;28;20025;-78
2021/06/08 04:59:53;;;;;;;8.77;4.63;;;13.90;99.90;;;;;;5053737;28;20393;-77
2021/06/08 05:02:31;;;;;;;7.88;4.10;;;14.10;99.90;;;;;;5036454;28;20027;-77
2021/06/08 05:05:01;;;;;;;8.60;4.45;;;14.10;99.90;;;;;;5054373;28;20028;-76
2021/06/08 05:07:28;;;;;;;10.05;4.93;;;14.20;99.90;;;;;;5054357;28;20025;-78
2021/06/08 05:09:54;;;;;;;7.57;4.32;;;14.30;99.90;;;;;;5054422;28;20060;-77
2021/06/08 05:12:22;;;;;;;10.10;4.68;;;14.40;99.90;;;;;;5035864;28;20187;-78
2021/06/08 05:14:54;;;;;;;9.88;4.45;;;14.50;99.90;;;;;;5054100;28;20476;-78
2021/06/08 05:17:21;;;;;;;9.55;5.05;;;14.60;99.90;;;;;;5036039;28;20025;-75
2021/06/08 05:19:49;;;;;;;8.43;4.28;;;14.70;99.90;;;;;;5053509;28;20033;-75
2021/06/08 05:22:23;;;;;;;7.20;4.03;;;14.90;99.90;;;;;;5035678;28;20119;-75
2021/06/08 05:24:51;;;;;;;9.85;4.00;;;15.20;99.90;;;;;;5053121;28;20036;-75
2021/06/08 05:27:18;;;;;;;6.87;4.40;;;15.50;99.90;;;;;;5053560;28;20099;-74
2021/06/08 05:29:44;;;;;;;3.10;2.40;;;15.70;99.90;;;;;;5054029;28;20024;-75
2021/06/08 05:32:12;;;;;;;7.97;3.80;;;16.00;99.90;;;;;;5054266;28;20029;-74
2021/06/08 05:34:42;;;;;;;6.45;3.30;;;16.40;99.90;;;;;;5035815;28;20028;-73
2021/06/08 05:37:13;;;;;;;6.05;3.58;;;16.50;99.90;;;;;;5054324;28;20025;-74
2021/06/08 05:39:40;;;;;;;5.72;3.58;;;16.70;99.90;;;;;;5035685;28;20102;-74
2021/06/08 05:42:09;;;;;;;9.07;2.70;;;16.80;99.90;;;;;;5035433;28;20014;-74
2021/06/08 05:44:34;;;;;;;;;;;16.90;99.90;;;;;;5054067;28;20029;-74
2021/06/08 05:47:05;;;;;;;8.52;3.35;;;17.10;99.90;;;;;;5053315;28;19909;-73
2021/06/08 05:49:31;;;;;;;7.20;3.05;;;17.30;99.90;;;;;;5053174;28;20056;-73
2021/06/08 05:51:59;;;;;;;6.38;3.05;;;17.30;99.90;;;;;;5053251;28;20025;-73
2021/06/08 05:54:27;;;;;;;3.88;2.80;;;17.20;99.90;;;;;;5053450;28;20029;-76
2021/06/08 05:56:53;;;;;;;4.45;3.20;;;17.20;99.90;;;;;;5048391;28;20060;-75
2021/06/08 05:59:19;;;;;;;4.53;2.95;;;17.20;99.90;;;;;;5035532;28;20025;-77
2021/06/08 06:01:45;;;;;;;7.05;2.78;;;17.20;99.90;;;;;;5055310;28;20476;-77
2021/06/08 06:04:12;;;;;;;5.05;3.28;;;17.10;99.90;;;;;;5037073;28;20486;-74
2021/06/08 06:06:41;;;;;;;6.87;3.40;;;17.20;99.90;;;;;;5052270;28;20017;-75
2021/06/08 06:09:07;;;;;;;6.75;3.95;;;17.20;99.90;;;;;;5033859;28;20033;-77
2021/06/08 06:11:34;;;;;;;9.18;3.50;;;17.20;99.90;;;;;;5046544;28;20432;-77
2021/06/08 06:14:02;;;;;;;5.10;2.47;;;17.30;99.90;;;;;;5035282;28;20203;-74
2021/06/08 06:16:34;;;;;;;4.68;2.75;;;17.30;99.90;;;;;;5053739;28;20083;-72
2021/06/08 06:19:01;;;;;;;4.55;2.22;;;17.40;99.90;;;;;;5053437;28;20021;-74
2021/06/08 06:21:28;;;;;;;8.35;2.38;;;17.50;99.90;;;;;;5053305;28;20087;-74
2021/06/08 06:23:54;;;;;;;3.10;1.73;;;17.60;99.90;;;;;;5052919;28;20021;-76
2021/06/08 06:26:20;;;;;;;7.00;1.58;;;17.80;99.90;;;;;;5061091;22;20408;-76
2021/06/08 06:28:46;;;;;;;4.43;1.90;;;17.80;99.90;;;;;;5092505;28;20020;-78
2021/06/08 06:31:12;;;;;;;1.85;1.23;;;17.90;99.90;;;;;;5095353;28;20055;-77
2021/06/08 06:33:42;;;;;;;2.28;1.20;;;18.00;99.90;;;;;;5094915;28;20109;-77
2021/06/08 06:36:08;;;;;;;1.88;0.93;;;18.30;99.90;;;;;;5094177;28;20020;-77
2021/06/08 06:38:35;;;;;;;2.15;0.90;;;18.40;99.90;;;;;;5096908;28;20105;-76
2021/06/08 06:41:06;;;;;;;2.30;0.80;;;18.50;99.90;;;;;;5095855;28;20019;-77
2021/06/08 06:43:34;;;;;;;2.10;0.40;;;18.70;99.90;;;;;;5099203;28;20028;-77
2021/06/08 06:46:00;;;;;;;2.47;0.30;;;18.70;99.90;;;;;;5096930;28;20107;-77
2021/06/08 06:48:26;;;;;;;1.67;0.50;;;18.90;99.90;;;;;;5097658;28;20051;-77
2021/06/08 06:50:53;;;;;;;1.02;0.52;;;19.00;99.40;;;;;;5098241;28;20024;-77
2021/06/08 06:53:19;;;;;;;4.35;0.30;;;19.10;97.90;;;;;;5098678;28;20050;-78
2021/06/08 06:55:52;;;;;;;2.38;0.57;;;19.30;98.20;;;;;;5097516;28;20024;-76
2021/06/08 06:58:20;;;;;;;2.38;0.68;;;19.40;96.90;;;;;;5095299;28;20055;-77
2021/06/08 07:00:46;;;;;;;0.40;0.30;;;19.50;96.20;;;;;;5098006;28;20024;-77
2021/06/08 07:03:14;;;;;;;0.90;0.43;;;19.70;94.60;;;;;;5096642;28;20452;-77
2021/06/08 07:05:44;;;;;;;1.95;0.30;;;19.90;93.00;;;;;;5095910;28;20384;-77
2021/06/08 07:08:10;;;;;;;0.65;0.00;;;19.90;91.10;;;;;;5117171;22;20032;-77
2021/06/08 07:10:36;;;;;;;1.67;0.13;;;19.90;90.90;;;;;;5098597;28;20119;-77
2021/06/08 07:13:06;;;;;;;0.90;0.40;;;19.90;90.70;;;;;;5116843;28;20080;-77
2021/06/08 07:15:33;;;;;;;0.88;0.00;;;20.00;90.50;;;;;;5098474;28;20128;-77
2021/06/08 07:17:59;;;;;;;1.88;0.00;;;20.10;87.70;;;;;;5116642;28;20024;-77
2021/06/08 07:20:26;;;;;;;2.85;0.00;;;20.30;86.30;;;;;;5116935;28;20027;-77
2021/06/08 07:22:52;;;;;;;1.27;0.00;;;20.40;81.70;;;;;;5117163;28;20057;-77
2021/06/08 07:25:19;;;;;;;0.40;0.00;;;20.50;77.80;;;;;;5116801;28;20467;-77
2021/06/08 07:27:46;;;;;;;1.02;0.00;;;20.60;78.70;;;;;;5116466;28;20020;-77
2021/06/08 07:30:14;;;;;;;0.68;0.47;;;20.70;76.50;;;;;;5116567;28;20019;-77
2021/06/08 07:32:57;;;;;;;2.30;0.25;;;20.80;75.40;;;;;;5097933;28;20104;-77
2021/06/08 07:35:32;;;;;;;0.35;0.00;;;20.90;74.40;;;;;;5116330;28;20098;-77
2021/06/08 07:38:07;;;;;;;0.90;0.00;;;21.00;73.20;;;;;;5116053;28;20012;-77
2021/06/08 07:40:40;;;;;;;0.88;0.00;;;21.10;72.60;;;;;;5097911;28;20040;-77
2021/06/08 07:43:09;;;;;;;1.45;0.00;;;21.20;70.80;;;;;;5116157;28;20100;-78
2021/06/08 07:45:44;;;;;;;0.98;0.00;;;21.30;72.00;;;;;;5097598;28;20021;-77
2021/06/08 07:48:17;;;;;;;3.30;0.00;;;21.40;68.40;;;;;;5097153;28;20031;-77
2021/06/08 07:50:49;;;;;;;0.57;0.00;;;21.50;67.50;;;;;;5115817;28;20019;-77
2021/06/08 07:53:16;;;;;;;0.32;0.00;;;21.60;67.00;;;;;;5115787;28;20103;-77
2021/06/08 07:55:43;;;;;;;0.95;0.00;;;21.60;64.40;;;;;;5115466;28;20027;-77
2021/06/08 07:58:11;;;;;;;0.32;0.00;;;21.60;63.80;;;;;;5115797;28;20023;-77
2021/06/08 08:00:36;;;;;;;2.35;0.20;;;21.70;64.20;;;;;;5115602;28;20023;-77
2021/06/08 08:05:48;;;;;;;0.63;0.00;;;22.00;63.90;;;;;;5116730;28;20098;-77
2021/06/08 08:08:20;;;;;;;0.03;0.00;;;22.10;63.80;;;;;;5096953;28;20472;-77
2021/06/08 08:10:50;;;;;;;0.15;0.00;;;22.30;62.40;;;;;;5115352;28;20106;-77
2021/06/08 08:13:22;;;;;;;0.32;0.00;;;22.30;60.80;;;;;;5115437;28;20023;-77
2021/06/08 08:15:50;;;;;;;0.20;0.00;;;22.50;61.30;;;;;;5096959;28;20024;-77
2021/06/08 08:18:15;;;;;;;2.13;0.00;;;22.50;60.00;;;;;;5117292;28;20023;-79
2021/06/08 08:20:49;;;;;;;1.70;0.00;;;22.60;60.00;;;;;;5097357;28;20106;-78
2021/06/08 08:23:15;;;;;;;0.20;0.00;;;22.70;57.70;;;;;;5116832;28;20515;-78
2021/06/08 08:25:42;;;;;;;2.97;0.32;;;22.90;57.60;;;;;;5101390;28;20011;-79
2021/06/08 08:28:09;;;;;;;0.30;0.00;;;22.90;56.40;;;;;;5097160;28;20118;-78
2021/06/08 08:30:36;;;;;;;0.00;0.00;;;22.90;57.10;;;;;;5118288;28;20079;-79
2021/06/08 08:33:03;;;;;;;0.60;0.00;;;23.00;57.60;;;;;;5096676;28;20059;-78
2021/06/08 08:35:30;;;;;;;0.35;0.00;;;23.20;56.80;;;;;;5098248;28;20016;-78
2021/06/08 08:37:55;;;;;;;0.22;0.00;;;23.30;57.70;;;;;;5120896;28;20031;-78
2021/06/08 08:40:22;;;;;;;1.00;0.00;;;23.40;55.60;;;;;;5115490;28;20020;-78
2021/06/08 08:42:49;;;;;;;1.77;0.00;;;23.20;54.80;;;;;;5118755;28;20020;-79
2021/06/08 08:45:15;;;;;;;0.40;0.20;;;23.30;55.60;;;;;;5097092;28;20019;-78
2021/06/08 08:47:44;;;;;;;1.23;0.00;;;23.40;55.50;;;;;;5097539;28;20024;-78
2021/06/08 08:50:19;;;;;;;0.35;0.00;;;23.40;53.00;;;;;;5119148;28;20027;-79
2021/06/08 08:52:55;;;;;;;0.57;0.00;;;23.40;53.90;;;;;;5117304;28;20020;-78
2021/06/08 08:55:24;;;;;;;0.30;0.15;;;23.60;53.30;;;;;;5117481;28;20047;-78
2021/06/08 08:57:53;;;;;;;0.00;0.00;;;23.60;53.80;;;;;;5117448;28;20392;-78
2021/06/08 09:00:21;;;;;;;0.40;0.00;;;23.70;52.20;;;;;;5097120;28;20026;-78
2021/06/08 09:02:48;;;;;;;;;;;23.80;53.70;;;;;;5102525;28;20086;-79
2021/06/08 09:05:14;;;;;;;0.90;0.00;;;23.80;53.60;;;;;;5118282;28;19932;-78
2021/06/08 09:07:40;;;;;;;0.55;0.28;;;24.00;52.60;;;;;;5118697;28;20019;-78
2021/06/08 09:10:09;;;;;;;1.90;0.00;;;23.90;52.40;;;;;;5100469;28;20118;-79
2021/06/08 09:12:36;;;;;;;2.13;0.00;;;24.00;52.80;;;;;;5119426;28;20047;-78
2021/06/08 09:15:05;;;;;;;1.38;0.00;;;24.10;51.10;;;;;;5099381;28;20054;-79
2021/06/08 09:17:31;;;;;;;0.57;0.00;;;24.10;51.90;;;;;;5096201;22;20036;-78
2021/06/08 09:19:57;;;;;;;0.10;0.00;;;24.20;51.10;;;;;;5078345;28;20024;-78
2021/06/08 09:22:23;;;;;;;1.25;0.00;;;24.30;52.70;;;;;;5096093;28;20031;-78
2021/06/08 09:24:54;;;;;;;1.23;0.40;;;24.50;52.20;;;;;;5095708;28;20047;-78
2021/06/08 09:27:31;;;;;;;1.98;0.00;;;24.60;51.50;;;;;;5096645;28;20069;-78
2021/06/08 09:29:56;;;;;;;0.43;0.00;;;24.70;51.20;;;;;;5096000;28;20052;-79
2021/06/08 09:32:26;;;;;;;0.20;0.00;;;24.80;50.10;;;;;;5078000;28;20028;-78
2021/06/08 09:35:00;;;;;;;1.85;0.10;;;24.70;49.00;;;;;;5077979;28;20035;-78
2021/06/08 09:37:41;;;;;;;4.68;0.57;;;24.80;49.00;;;;;;5095996;28;20027;-78
2021/06/08 09:40:21;;;;;;;0.25;0.13;;;24.90;50.90;;;;;;5076000;28;20020;-77
2021/06/08 09:43:07;;;;;;;0.00;0.00;;;25.00;49.80;;;;;;5093596;28;20024;-77
2021/06/08 09:45:47;;;;;;;1.58;0.00;;;25.20;48.00;;;;;;5076067;28;20019;-78
2021/06/08 09:48:14;;;;;;;0.30;0.00;;;25.30;48.40;;;;;;5095271;28;20032;-78
2021/06/08 09:50:45;;;;;;;0.95;0.00;;;25.40;48.30;;;;;;5093365;28;20060;-78
2021/06/08 09:53:20;;;;;;;0.32;0.00;;;25.40;47.50;;;;;;5093446;28;20020;-78
2021/06/08 09:55:49;;;;;;;0.93;0.00;;;25.60;48.90;;;;;;5093549;28;20101;-78
2021/06/08 09:58:15;;;;;;;0.10;0.00;;;25.70;49.00;;;;;;5093304;28;20070;-78
2021/06/08 10:01:00;;;;;;;1.75;0.00;;;25.70;47.90;;;;;;5093355;28;20024;-78
2021/06/08 10:03:51;;;;;;;1.10;0.00;;;25.50;47.60;;;;;;5075051;28;20020;-78
2021/06/08 10:06:24;;;;;;;1.30;0.00;;;25.10;46.70;;;;;;5080871;28;20032;-78
2021/06/08 10:08:52;;;;;;;0.00;0.00;;;25.10;48.20;;;;;;5093259;28;20073;-78
2021/06/08 10:11:23;;;;;;;0.00;0.00;;;25.40;48.80;;;;;;5095299;28;20024;-78
2021/06/08 10:13:52;;;;;;;0.00;0.00;;;25.60;50.70;;;;;;5079147;28;20313;-78
2021/06/08 10:16:32;;;;;;;0.00;0.00;;;25.70;48.00;;;;;;5097104;28;20032;-78
2021/06/08 10:19:00;;;;;;;1.23;0.00;;;25.70;46.70;;;;;;5079065;28;20023;-78
2021/06/08 10:21:47;;;;;;;0.20;0.00;;;25.60;47.60;;;;;;5097530;28;20023;-78
2021/06/08 10:24:16;;;;;;;2.03;0.00;;;25.70;47.70;;;;;;5097088;28;20384;-78
2021/06/08 10:26:50;;;;;;;0.30;0.00;;;26.00;48.90;;;;;;5098333;28;20025;-78
2021/06/08 10:29:17;;;;;;;0.28;0.08;;;26.20;47.40;;;;;;5079813;28;20017;-78
2021/06/08 10:31:43;;;;;;;0.98;0.00;;;26.60;47.20;;;;;;5097423;28;20099;-78
2021/06/08 10:34:11;;;;;;;0.35;0.00;;;26.70;45.10;;;;;;5119677;22;20059;-78
2021/06/08 10:36:39;;;;;;;2.47;0.28;;;26.60;46.90;;;;;;5120923;28;20027;-78
2021/06/08 10:39:11;;;;;;;1.45;0.00;;;26.80;48.00;;;;;;5119257;28;20040;-78
2021/06/08 10:41:39;;;;;;;0.80;0.00;;;27.10;46.40;;;;;;5118787;28;20115;-78
2021/06/08 10:44:05;;;;;;;;;;;27.30;46.60;;;;;;5120376;28;20020;-78
2021/06/08 10:46:44;;;;;;;2.50;0.10;;;27.50;43.60;;;;;;5118326;28;19907;-79
2021/06/08 10:49:10;;;;;;;6.28;0.73;;;27.30;43.70;;;;;;5119148;28;20054;-78
2021/06/08 10:51:37;;;;;;;2.95;0.20;;;27.20;43.30;;;;;;5119127;28;20028;-78
2021/06/08 10:54:16;;;;;;;0.63;0.10;;;27.00;44.50;;;;;;5118761;28;20511;-79
2021/06/08 10:56:57;;;;;;;0.73;0.00;;;27.00;45.40;;;;;;5120764;28;20020;-79
2021/06/08 10:59:44;;;;;;;0.03;0.00;;;27.20;46.00;;;;;;5123506;27;20024;-79
2021/06/08 11:02:13;;;;;;;1.20;0.00;;;27.50;43.30;;;;;;5121713;28;20062;-78
2021/06/08 11:04:52;;;;;;;;;;;27.50;43.00;;;;;;5118850;28;20016;-78
2021/06/08 11:07:44;;;;;;;0.60;0.03;;;27.70;45.30;;;;;;5120599;28;19904;-78
2021/06/08 11:10:28;;;;;;;2.20;0.13;;;27.90;43.70;;;;;;5122325;28;20032;-79
2021/06/08 11:13:12;;;;;;;3.53;0.45;;;28.20;43.30;;;;;;5123386;28;20404;-78
2021/06/08 11:15:40;;;;;;;0.73;0.15;;;28.10;41.50;;;;;;5119492;28;20039;-77
2021/06/08 11:18:17;;;;;;;2.03;0.00;;;28.10;41.60;;;;;;5117011;28;20024;-77
2021/06/08 11:20:44;;;;;;;1.45;0.00;;;28.20;42.10;;;;;;5116716;28;20019;-79
2021/06/08 11:23:10;;;;;;;0.40;0.22;;;28.20;41.50;;;;;;5117433;28;20131;-79
2021/06/08 11:25:41;;;;;;;0.57;0.20;;;28.40;41.70;;;;;;5131181;28;20099;-80
2021/06/08 11:28:15;;;;;;;0.90;0.10;;;28.50;41.50;;;;;;5128699;28;20024;-78
2021/06/08 11:30:44;;;;;;;0.90;0.00;;;28.50;40.70;;;;;;5125935;28;20104;-79
2021/06/08 11:33:30;;;;;;;;;;;28.60;44.40;;;;;;5127334;28;20034;-77
2021/06/08 11:35:55;;;;;;;0.30;0.00;;;28.90;43.70;;;;;;5127699;28;19907;-77
2021/06/08 11:38:24;;;;;;;0.70;0.00;;;29.10;43.30;;;;;;5127073;28;20053;-78
2021/06/08 11:40:53;;;;;;;;;;;29.00;41.20;;;;;;5132352;28;20054;-80
2021/06/08 11:43:19;;;;;;;4.65;0.10;;;29.10;42.10;;;;;;5127982;28;19915;-78
2021/06/08 11:45:46;;;;;;;0.00;0.00;;;29.40;40.60;;;;;;5125074;28;20472;-78
2021/06/08 11:48:32;;;;;;;0.37;0.00;;;29.60;38.80;;;;;;5118487;28;20502;-76
2021/06/08 11:50:59;;;;;;;0.22;0.22;;;29.60;39.70;;;;;;5118345;28;20277;-77
2021/06/08 11:53:24;;;;;;;2.00;0.00;;;30.00;40.40;;;;;;5118934;28;20027;-78
2021/06/08 11:56:12;;;;;;;1.02;0.00;;;30.20;39.00;;;;;;5116678;28;20019;-78
2021/06/08 11:58:39;;;;;;;0.30;0.00;;;30.50;40.80;;;;;;5154092;22;20047;-79
2021/06/08 12:01:06;;;;;;;0.60;0.20;;;30.80;39.20;;;;;;5118382;28;20262;-77
2021/06/08 12:03:35;;;;;;;0.90;0.10;;;31.10;39.80;;;;;;5139758;22;20508;-78
2021/06/08 12:06:03;;;;;;;3.17;0.00;;;30.60;40.80;;;;;;5122400;27;20043;-77
2021/06/08 12:08:31;;;;;;;1.23;0.00;;;30.80;40.60;;;;;;5160916;22;20544;-78
2021/06/08 12:10:59;;;;;;;1.80;0.35;;;30.50;38.90;;;;;;5123103;27;20019;-78
2021/06/08 12:13:32;;;;;;;1.70;0.05;;;30.40;39.40;;;;;;5140425;27;20072;-79
2021/06/08 12:15:58;;;;;;;2.75;0.10;;;30.40;39.20;;;;;;5117977;27;20030;-77
2021/06/08 12:18:37;;;;;;;0.95;0.00;;;30.20;37.60;;;;;;5136360;27;20019;-77
2021/06/08 12:21:12;;;;;;;2.17;0.00;;;29.60;37.80;;;;;;5136350;27;20087;-78
2021/06/08 12:23:39;;;;;;;0.52;0.00;;;29.20;39.70;;;;;;5118578;27;20035;-79
2021/06/08 12:28:33;;;;;;;1.75;0.00;;;29.60;43.20;;;;;;5077023;28;20117;-80
2021/06/08 12:31:17;;;;;;;0.40;0.00;;;30.20;39.40;;;;;;5062875;28;20017;-82
2021/06/08 12:33:46;;;;;;;0.95;0.10;;;30.70;40.10;;;;;;5079521;28;20092;-81
2021/06/08 12:36:12;;;;;;;0.52;0.00;;;31.00;38.80;;;;;;5079395;28;20017;-80
2021/06/08 12:38:52;;;;;;;0.15;0.00;;;31.30;39.80;;;;;;5080740;28;20362;-81
2021/06/08 12:41:23;;;;;;;0.38;0.00;;;31.70;38.90;;;;;;5085255;22;20464;-81
2021/06/08 12:43:52;;;;;;;0.22;0.10;;;31.70;40.80;;;;;;5120467;28;20157;-80
2021/06/08 12:46:43;;;;;;;0.10;0.08;;;31.80;39.50;;;;;;5120974;28;20020;-80
2021/06/08 12:49:19;;;;;;;1.75;0.10;;;31.50;38.10;;;;;;5116886;28;20038;-80
2021/06/08 12:51:58;;;;;;;1.30;0.00;;;31.50;39.40;;;;;;5121085;28;20487;-80
2021/06/08 12:54:34;;;;;;;0.50;0.00;;;31.60;38.30;;;;;;5102264;28;20076;-81
2021/06/08 12:57:03;;;;;;;1.05;0.00;;;31.70;39.50;;;;;;5102628;28;20035;-80
2021/06/08 12:59:36;;;;;;;2.42;0.20;;;31.70;39.10;;;;;;5101526;28;20487;-81
2021/06/08 13:02:09;;;;;;;3.10;0.32;;;32.00;40.50;;;;;;5120407;28;20024;-81
2021/06/08 13:04:39;;;;;;;1.38;0.00;;;32.10;40.30;;;;;;5102251;28;20039;-81